sensor_id;sensor_type;location;lat;lon;timestamp;temperature;humidity
61016;DHT22;46902;52.920;6.536;2023-05-29T00:00:20;12.00;92.00
61016;DHT22;46902;52.920;6.536;2023-05-29T00:02:47;12.00;92.10
61016;DHT22;46902;52.920;6.536;2023-05-29T00:05:13;12.00;92.20
61016;DHT22;46902;52.920;6.536;2023-05-29T00:07:40;12.00;92.30
61016;DHT22;46902;52.920;6.536;2023-05-29T00:10:07;11.90;92.30
61016;DHT22;46902;52.920;6.536;2023-05-29T00:12:34;11.90;92.50
61016;DHT22;46902;52.920;6.536;2023-05-29T00:15:00;11.80;92.50
61016;DHT22;46902;52.920;6.536;2023-05-29T00:17:26;11.80;92.60
61016;DHT22;46902;52.920;6.536;2023-05-29T00:19:51;11.80;92.70
61016;DHT22;46902;52.920;6.536;2023-05-29T00:22:17;11.80;92.90
61016;DHT22;46902;52.920;6.536;2023-05-29T00:24:43;11.70;92.90
61016;DHT22;46902;52.920;6.536;2023-05-29T00:27:09;11.70;93.00
61016;DHT22;46902;52.920;6.536;2023-05-29T00:29:38;11.70;93.00
61016;DHT22;46902;52.920;6.536;2023-05-29T00:32:07;11.70;93.10
61016;DHT22;46902;52.920;6.536;2023-05-29T00:34:32;11.60;93.30
61016;DHT22;46902;52.920;6.536;2023-05-29T00:36:58;11.60;93.20
61016;DHT22;46902;52.920;6.536;2023-05-29T00:39:24;11.60;93.20
61016;DHT22;46902;52.920;6.536;2023-05-29T00:41:50;11.60;93.40
61016;DHT22;46902;52.920;6.536;2023-05-29T00:44:20;11.60;93.40
61016;DHT22;46902;52.920;6.536;2023-05-29T00:46:51;11.60;93.40
61016;DHT22;46902;52.920;6.536;2023-05-29T00:49:19;11.60;93.50
61016;DHT22;46902;52.920;6.536;2023-05-29T00:51:45;11.50;93.50
61016;DHT22;46902;52.920;6.536;2023-05-29T00:54:13;11.50;93.60
61016;DHT22;46902;52.920;6.536;2023-05-29T00:56:40;11.50;93.70
61016;DHT22;46902;52.920;6.536;2023-05-29T00:59:09;11.50;93.80
61016;DHT22;46902;52.920;6.536;2023-05-29T01:01:35;11.40;93.80
61016;DHT22;46902;52.920;6.536;2023-05-29T01:04:03;11.40;93.90
61016;DHT22;46902;52.920;6.536;2023-05-29T01:06:32;11.40;94.00
61016;DHT22;46902;52.920;6.536;2023-05-29T01:08:58;11.40;94.10
61016;DHT22;46902;52.920;6.536;2023-05-29T01:28:33;11.20;94.60
61016;DHT22;46902;52.920;6.536;2023-05-29T01:31:03;11.10;94.60
61016;DHT22;46902;52.920;6.536;2023-05-29T01:33:29;11.20;94.60
61016;DHT22;46902;52.920;6.536;2023-05-29T01:35:54;11.10;94.60
61016;DHT22;46902;52.920;6.536;2023-05-29T01:38:20;11.10;94.60
61016;DHT22;46902;52.920;6.536;2023-05-29T01:40:46;11.10;94.70
61016;DHT22;46902;52.920;6.536;2023-05-29T01:43:12;11.10;94.80
61016;DHT22;46902;52.920;6.536;2023-05-29T01:45:39;11.00;94.90
61016;DHT22;46902;52.920;6.536;2023-05-29T01:48:06;11.00;94.90
61016;DHT22;46902;52.920;6.536;2023-05-29T01:50:31;11.10;94.90
61016;DHT22;46902;52.920;6.536;2023-05-29T01:52:57;11.00;94.90
61016;DHT22;46902;52.920;6.536;2023-05-29T01:55:22;11.00;94.90
61016;DHT22;46902;52.920;6.536;2023-05-29T01:57:49;11.00;94.90
61016;DHT22;46902;52.920;6.536;2023-05-29T02:00:17;11.00;95.00
61016;DHT22;46902;52.920;6.536;2023-05-29T02:02:42;11.00;95.10
61016;DHT22;46902;52.920;6.536;2023-05-29T02:05:08;11.00;95.00
61016;DHT22;46902;52.920;6.536;2023-05-29T02:07:35;10.90;95.00
61016;DHT22;46902;52.920;6.536;2023-05-29T02:10:03;10.90;95.10
61016;DHT22;46902;52.920;6.536;2023-05-29T02:12:29;10.90;95.10
61016;DHT22;46902;52.920;6.536;2023-05-29T02:14:55;10.90;95.10
61016;DHT22;46902;52.920;6.536;2023-05-29T02:17:21;10.80;95.10
61016;DHT22;46902;52.920;6.536;2023-05-29T02:19:46;10.90;95.10
61016;DHT22;46902;52.920;6.536;2023-05-29T02:22:12;10.80;95.20
61016;DHT22;46902;52.920;6.536;2023-05-29T02:24:38;10.80;95.30
61016;DHT22;46902;52.920;6.536;2023-05-29T02:27:04;10.80;95.40
61016;DHT22;46902;52.920;6.536;2023-05-29T02:29:29;10.70;95.40
61016;DHT22;46902;52.920;6.536;2023-05-29T02:31:55;10.80;95.40
61016;DHT22;46902;52.920;6.536;2023-05-29T02:34:20;10.70;95.40
61016;DHT22;46902;52.920;6.536;2023-05-29T02:36:50;10.70;95.50
61016;DHT22;46902;52.920;6.536;2023-05-29T02:39:20;10.70;95.50
61016;DHT22;46902;52.920;6.536;2023-05-29T02:41:46;10.70;95.60
61016;DHT22;46902;52.920;6.536;2023-05-29T02:44:11;10.60;95.70
61016;DHT22;46902;52.920;6.536;2023-05-29T02:46:37;10.60;95.70
61016;DHT22;46902;52.920;6.536;2023-05-29T02:49:02;10.50;95.90
61016;DHT22;46902;52.920;6.536;2023-05-29T02:51:28;10.50;96.00
61016;DHT22;46902;52.920;6.536;2023-05-29T02:53:54;10.40;96.10
61016;DHT22;46902;52.920;6.536;2023-05-29T02:56:19;10.40;96.20
61016;DHT22;46902;52.920;6.536;2023-05-29T02:58:49;10.40;96.40
61016;DHT22;46902;52.920;6.536;2023-05-29T03:01:15;10.40;96.50
61016;DHT22;46902;52.920;6.536;2023-05-29T03:03:41;10.30;96.60
61016;DHT22;46902;52.920;6.536;2023-05-29T03:06:06;10.30;96.60
61016;DHT22;46902;52.920;6.536;2023-05-29T03:08:35;10.30;96.70
61016;DHT22;46902;52.920;6.536;2023-05-29T03:11:01;10.20;96.80
61016;DHT22;46902;52.920;6.536;2023-05-29T03:13:26;10.20;96.90
61016;DHT22;46902;52.920;6.536;2023-05-29T03:15:52;10.10;97.00
61016;DHT22;46902;52.920;6.536;2023-05-29T03:18:22;10.00;97.20
61016;DHT22;46902;52.920;6.536;2023-05-29T03:20:48;10.00;97.40
61016;DHT22;46902;52.920;6.536;2023-05-29T03:23:14;10.00;97.50
61016;DHT22;46902;52.920;6.536;2023-05-29T03:25:40;9.90;97.60
61016;DHT22;46902;52.920;6.536;2023-05-29T03:28:05;9.90;97.80
61016;DHT22;46902;52.920;6.536;2023-05-29T03:30:31;9.90;97.70
61016;DHT22;46902;52.920;6.536;2023-05-29T03:32:56;9.90;97.90
61016;DHT22;46902;52.920;6.536;2023-05-29T03:35:22;9.90;98.10
61016;DHT22;46902;52.920;6.536;2023-05-29T03:37:47;9.90;98.20
61016;DHT22;46902;52.920;6.536;2023-05-29T03:40:13;9.90;98.20
61016;DHT22;46902;52.920;6.536;2023-05-29T03:42:39;9.80;98.20
61016;DHT22;46902;52.920;6.536;2023-05-29T03:45:04;9.80;98.50
61016;DHT22;46902;52.920;6.536;2023-05-29T03:47:30;9.80;98.50
61016;DHT22;46902;52.920;6.536;2023-05-29T03:49:56;9.80;98.70
61016;DHT22;46902;52.920;6.536;2023-05-29T03:52:21;9.80;98.80
61016;DHT22;46902;52.920;6.536;2023-05-29T03:54:47;9.80;99.00
61016;DHT22;46902;52.920;6.536;2023-05-29T03:57:13;9.80;99.10
61016;DHT22;46902;52.920;6.536;2023-05-29T03:59:39;9.80;99.10
61016;DHT22;46902;52.920;6.536;2023-05-29T04:02:04;9.80;99.10
61016;DHT22;46902;52.920;6.536;2023-05-29T04:04:30;9.90;99.20
61016;DHT22;46902;52.920;6.536;2023-05-29T04:06:55;9.90;99.20
61016;DHT22;46902;52.920;6.536;2023-05-29T04:09:22;9.80;99.20
61016;DHT22;46902;52.920;6.536;2023-05-29T04:11:47;9.90;99.20
61016;DHT22;46902;52.920;6.536;2023-05-29T04:14:13;9.90;99.20
61016;DHT22;46902;52.920;6.536;2023-05-29T04:16:38;9.90;99.30
61016;DHT22;46902;52.920;6.536;2023-05-29T04:19:04;9.90;99.30
61016;DHT22;46902;52.920;6.536;2023-05-29T04:21:29;9.90;99.60
61016;DHT22;46902;52.920;6.536;2023-05-29T04:23:58;9.90;99.40
61016;DHT22;46902;52.920;6.536;2023-05-29T04:26:23;10.00;99.30
61016;DHT22;46902;52.920;6.536;2023-05-29T04:28:52;9.90;99.40
61016;DHT22;46902;52.920;6.536;2023-05-29T04:31:25;10.00;99.40
61016;DHT22;46902;52.920;6.536;2023-05-29T04:33:52;10.10;99.50
61016;DHT22;46902;52.920;6.536;2023-05-29T04:36:27;10.00;99.50
61016;DHT22;46902;52.920;6.536;2023-05-29T04:38:53;10.10;99.50
61016;DHT22;46902;52.920;6.536;2023-05-29T04:41:19;10.00;99.80
61016;DHT22;46902;52.920;6.536;2023-05-29T04:43:49;10.00;99.60
61016;DHT22;46902;52.920;6.536;2023-05-29T04:46:16;10.10;99.50
61016;DHT22;46902;52.920;6.536;2023-05-29T04:48:42;10.20;99.40
61016;DHT22;46902;52.920;6.536;2023-05-29T04:51:09;10.20;99.40
61016;DHT22;46902;52.920;6.536;2023-05-29T04:53:38;10.30;99.30
61016;DHT22;46902;52.920;6.536;2023-05-29T04:56:03;10.40;98.90
61016;DHT22;46902;52.920;6.536;2023-05-29T04:58:29;10.40;98.70
61016;DHT22;46902;52.920;6.536;2023-05-29T05:00:54;10.50;98.70
61016;DHT22;46902;52.920;6.536;2023-05-29T05:03:23;10.50;98.60
61016;DHT22;46902;52.920;6.536;2023-05-29T05:05:51;10.60;98.20
61016;DHT22;46902;52.920;6.536;2023-05-29T05:08:17;10.60;98.00
61016;DHT22;46902;52.920;6.536;2023-05-29T05:10:43;10.70;98.00
61016;DHT22;46902;52.920;6.536;2023-05-29T05:13:08;10.70;98.10
61016;DHT22;46902;52.920;6.536;2023-05-29T05:15:34;10.80;97.90
61016;DHT22;46902;52.920;6.536;2023-05-29T05:18:00;10.80;97.80
61016;DHT22;46902;52.920;6.536;2023-05-29T05:20:25;10.90;97.90
61016;DHT22;46902;52.920;6.536;2023-05-29T05:22:51;11.00;97.80
61016;DHT22;46902;52.920;6.536;2023-05-29T05:25:17;11.00;97.50
61016;DHT22;46902;52.920;6.536;2023-05-29T05:27:42;11.10;97.40
61016;DHT22;46902;52.920;6.536;2023-05-29T05:30:08;11.10;97.20
61016;DHT22;46902;52.920;6.536;2023-05-29T05:32:34;11.20;97.10
61016;DHT22;46902;52.920;6.536;2023-05-29T05:35:00;11.30;97.10
61016;DHT22;46902;52.920;6.536;2023-05-29T05:37:26;11.30;96.80
61016;DHT22;46902;52.920;6.536;2023-05-29T05:39:51;11.40;96.70
61016;DHT22;46902;52.920;6.536;2023-05-29T05:42:19;11.40;96.60
61016;DHT22;46902;52.920;6.536;2023-05-29T05:44:45;11.50;96.40
61016;DHT22;46902;52.920;6.536;2023-05-29T05:47:11;11.50;96.10
61016;DHT22;46902;52.920;6.536;2023-05-29T05:49:36;11.60;95.90
61016;DHT22;46902;52.920;6.536;2023-05-29T05:52:02;11.70;95.70
61016;DHT22;46902;52.920;6.536;2023-05-29T05:54:27;11.80;95.60
61016;DHT22;46902;52.920;6.536;2023-05-29T05:56:53;11.80;95.30
61016;DHT22;46902;52.920;6.536;2023-05-29T05:59:18;11.90;95.10
61016;DHT22;46902;52.920;6.536;2023-05-29T06:01:44;12.00;94.90
61016;DHT22;46902;52.920;6.536;2023-05-29T06:04:10;12.00;94.70
61016;DHT22;46902;52.920;6.536;2023-05-29T06:06:35;12.00;94.20
61016;DHT22;46902;52.920;6.536;2023-05-29T06:09:01;12.10;93.90
61016;DHT22;46902;52.920;6.536;2023-05-29T06:11:27;12.10;93.60
61016;DHT22;46902;52.920;6.536;2023-05-29T06:13:53;12.20;93.10
61016;DHT22;46902;52.920;6.536;2023-05-29T06:16:19;12.30;92.90
61016;DHT22;46902;52.920;6.536;2023-05-29T06:18:44;12.30;92.70
61016;DHT22;46902;52.920;6.536;2023-05-29T06:21:12;12.30;92.30
61016;DHT22;46902;52.920;6.536;2023-05-29T06:23:38;12.40;92.20
61016;DHT22;46902;52.920;6.536;2023-05-29T06:26:04;12.50;91.80
61016;DHT22;46902;52.920;6.536;2023-05-29T06:28:30;12.60;91.70
61016;DHT22;46902;52.920;6.536;2023-05-29T06:30:56;12.60;91.30
61016;DHT22;46902;52.920;6.536;2023-05-29T06:33:21;12.70;91.00
61016;DHT22;46902;52.920;6.536;2023-05-29T06:35:47;12.80;90.70
61016;DHT22;46902;52.920;6.536;2023-05-29T06:38:16;12.80;90.20
61016;DHT22;46902;52.920;6.536;2023-05-29T06:40:42;12.80;90.00
61016;DHT22;46902;52.920;6.536;2023-05-29T06:43:08;12.90;89.80
61016;DHT22;46902;52.920;6.536;2023-05-29T06:45:34;12.90;89.50
61016;DHT22;46902;52.920;6.536;2023-05-29T06:48:00;12.90;89.10
61016;DHT22;46902;52.920;6.536;2023-05-29T06:50:26;12.90;88.50
61016;DHT22;46902;52.920;6.536;2023-05-29T06:52:51;12.90;88.20
61016;DHT22;46902;52.920;6.536;2023-05-29T06:55:17;13.00;88.10
61016;DHT22;46902;52.920;6.536;2023-05-29T06:57:43;13.00;87.80
61016;DHT22;46902;52.920;6.536;2023-05-29T07:00:09;13.00;87.70
61016;DHT22;46902;52.920;6.536;2023-05-29T07:02:36;13.00;87.40
61016;DHT22;46902;52.920;6.536;2023-05-29T07:05:02;13.10;87.30
61016;DHT22;46902;52.920;6.536;2023-05-29T07:07:28;13.10;86.80
61016;DHT22;46902;52.920;6.536;2023-05-29T07:09:54;13.20;86.30
61016;DHT22;46902;52.920;6.536;2023-05-29T07:12:21;13.20;86.30
61016;DHT22;46902;52.920;6.536;2023-05-29T07:14:47;13.30;86.30
61016;DHT22;46902;52.920;6.536;2023-05-29T07:17:14;13.40;86.20
61016;DHT22;46902;52.920;6.536;2023-05-29T07:19:43;13.60;86.20
61016;DHT22;46902;52.920;6.536;2023-05-29T07:22:11;13.70;85.50
61016;DHT22;46902;52.920;6.536;2023-05-29T07:24:37;13.90;85.80
61016;DHT22;46902;52.920;6.536;2023-05-29T07:27:03;13.90;84.50
61016;DHT22;46902;52.920;6.536;2023-05-29T07:29:28;14.00;84.60
61016;DHT22;46902;52.920;6.536;2023-05-29T07:31:54;14.10;84.00
61016;DHT22;46902;52.920;6.536;2023-05-29T07:34:20;14.30;83.70
61016;DHT22;46902;52.920;6.536;2023-05-29T07:37:00;14.40;83.60
61016;DHT22;46902;52.920;6.536;2023-05-29T07:39:26;14.50;83.00
61016;DHT22;46902;52.920;6.536;2023-05-29T07:41:52;14.60;82.90
61016;DHT22;46902;52.920;6.536;2023-05-29T07:44:18;14.70;82.10
61016;DHT22;46902;52.920;6.536;2023-05-29T07:46:43;14.70;81.60
61016;DHT22;46902;52.920;6.536;2023-05-29T07:49:09;14.80;81.30
61016;DHT22;46902;52.920;6.536;2023-05-29T07:51:35;14.80;80.90
61016;DHT22;46902;52.920;6.536;2023-05-29T07:54:01;14.80;80.40
61016;DHT22;46902;52.920;6.536;2023-05-29T07:56:26;14.90;80.10
61016;DHT22;46902;52.920;6.536;2023-05-29T07:58:52;14.80;80.10
61016;DHT22;46902;52.920;6.536;2023-05-29T08:01:20;14.80;79.70
61016;DHT22;46902;52.920;6.536;2023-05-29T08:03:48;14.90;79.10
61016;DHT22;46902;52.920;6.536;2023-05-29T08:06:14;15.00;78.40
61016;DHT22;46902;52.920;6.536;2023-05-29T08:08:40;15.10;78.50
61016;DHT22;46902;52.920;6.536;2023-05-29T08:11:06;15.20;77.50
61016;DHT22;46902;52.920;6.536;2023-05-29T08:13:31;15.20;77.10
61016;DHT22;46902;52.920;6.536;2023-05-29T08:15:57;15.30;76.70
61016;DHT22;46902;52.920;6.536;2023-05-29T08:18:25;15.30;76.70
61016;DHT22;46902;52.920;6.536;2023-05-29T08:20:51;15.40;76.50
61016;DHT22;46902;52.920;6.536;2023-05-29T08:23:18;15.40;76.60
61016;DHT22;46902;52.920;6.536;2023-05-29T08:25:44;15.50;76.40
61016;DHT22;46902;52.920;6.536;2023-05-29T08:28:10;15.70;76.20
61016;DHT22;46902;52.920;6.536;2023-05-29T08:30:35;15.80;75.50
61016;DHT22;46902;52.920;6.536;2023-05-29T08:33:02;15.90;75.10
61016;DHT22;46902;52.920;6.536;2023-05-29T08:35:29;15.90;74.30
61016;DHT22;46902;52.920;6.536;2023-05-29T08:37:55;15.90;73.90
61016;DHT22;46902;52.920;6.536;2023-05-29T08:40:20;16.00;74.00
61016;DHT22;46902;52.920;6.536;2023-05-29T08:42:51;16.10;74.00
61016;DHT22;46902;52.920;6.536;2023-05-29T08:45:19;16.10;73.50
61016;DHT22;46902;52.920;6.536;2023-05-29T08:47:51;16.10;73.00
61016;DHT22;46902;52.920;6.536;2023-05-29T08:50:18;16.20;73.70
61016;DHT22;46902;52.920;6.536;2023-05-29T08:52:44;16.20;73.80
61016;DHT22;46902;52.920;6.536;2023-05-29T08:55:10;16.30;73.90
61016;DHT22;46902;52.920;6.536;2023-05-29T08:57:37;16.30;73.40
61016;DHT22;46902;52.920;6.536;2023-05-29T09:00:05;16.40;72.50
61016;DHT22;46902;52.920;6.536;2023-05-29T09:02:39;16.40;72.30
61016;DHT22;46902;52.920;6.536;2023-05-29T09:05:05;16.40;71.50
61016;DHT22;46902;52.920;6.536;2023-05-29T09:07:32;16.40;70.40
61016;DHT22;46902;52.920;6.536;2023-05-29T09:09:58;16.40;70.60
61016;DHT22;46902;52.920;6.536;2023-05-29T09:12:24;16.50;70.90
61016;DHT22;46902;52.920;6.536;2023-05-29T09:14:50;16.60;71.70
61016;DHT22;46902;52.920;6.536;2023-05-29T09:17:16;16.60;71.10
61016;DHT22;46902;52.920;6.536;2023-05-29T09:19:41;16.60;70.80
61016;DHT22;46902;52.920;6.536;2023-05-29T09:22:14;16.70;70.50
61016;DHT22;46902;52.920;6.536;2023-05-29T09:24:46;16.80;69.90
61016;DHT22;46902;52.920;6.536;2023-05-29T09:27:12;16.80;69.30
61016;DHT22;46902;52.920;6.536;2023-05-29T09:29:42;16.80;69.50
61016;DHT22;46902;52.920;6.536;2023-05-29T09:32:12;16.80;69.00
61016;DHT22;46902;52.920;6.536;2023-05-29T09:34:38;16.90;69.20
61016;DHT22;46902;52.920;6.536;2023-05-29T09:37:05;17.00;69.40
61016;DHT22;46902;52.920;6.536;2023-05-29T09:39:49;17.10;69.00
61016;DHT22;46902;52.920;6.536;2023-05-29T09:42:17;17.30;68.30
61016;DHT22;46902;52.920;6.536;2023-05-29T09:44:49;17.30;69.00
61016;DHT22;46902;52.920;6.536;2023-05-29T09:47:17;17.30;68.70
61016;DHT22;46902;52.920;6.536;2023-05-29T09:49:44;17.40;68.30
61016;DHT22;46902;52.920;6.536;2023-05-29T09:52:12;17.40;68.30
61016;DHT22;46902;52.920;6.536;2023-05-29T09:54:44;17.40;68.20
61016;DHT22;46902;52.920;6.536;2023-05-29T09:57:13;17.50;68.50
61016;DHT22;46902;52.920;6.536;2023-05-29T09:59:43;17.70;68.30
61016;DHT22;46902;52.920;6.536;2023-05-29T10:02:10;17.80;67.70
61016;DHT22;46902;52.920;6.536;2023-05-29T10:04:37;17.80;67.10
61016;DHT22;46902;52.920;6.536;2023-05-29T10:07:12;17.90;66.90
61016;DHT22;46902;52.920;6.536;2023-05-29T10:09:44;18.00;66.70
61016;DHT22;46902;52.920;6.536;2023-05-29T10:12:16;18.10;66.20
61016;DHT22;46902;52.920;6.536;2023-05-29T10:14:51;18.30;66.00
61016;DHT22;46902;52.920;6.536;2023-05-29T10:17:23;18.40;65.10
61016;DHT22;46902;52.920;6.536;2023-05-29T10:19:49;18.50;65.60
61016;DHT22;46902;52.920;6.536;2023-05-29T10:22:19;18.60;65.00
61016;DHT22;46902;52.920;6.536;2023-05-29T10:24:46;18.70;64.90
61016;DHT22;46902;52.920;6.536;2023-05-29T10:27:13;18.70;64.00
61016;DHT22;46902;52.920;6.536;2023-05-29T10:29:59;18.80;64.50
61016;DHT22;46902;52.920;6.536;2023-05-29T10:32:32;18.70;62.70
61016;DHT22;46902;52.920;6.536;2023-05-29T10:37:42;18.70;63.30
61016;DHT22;46902;52.920;6.536;2023-05-29T10:40:10;18.80;64.40
61016;DHT22;46902;52.920;6.536;2023-05-29T10:42:49;18.80;63.70
61016;DHT22;46902;52.920;6.536;2023-05-29T10:50:37;18.80;63.00
61016;DHT22;46902;52.920;6.536;2023-05-29T10:53:07;18.90;62.80
61016;DHT22;46902;52.920;6.536;2023-05-29T10:55:36;19.00;63.20
61016;DHT22;46902;52.920;6.536;2023-05-29T10:58:12;19.20;62.30
61016;DHT22;46902;52.920;6.536;2023-05-29T11:00:42;19.40;62.00
61016;DHT22;46902;52.920;6.536;2023-05-29T11:03:08;19.60;62.10
61016;DHT22;46902;52.920;6.536;2023-05-29T11:05:34;19.80;61.70
61016;DHT22;46902;52.920;6.536;2023-05-29T11:08:01;19.70;61.00
61016;DHT22;46902;52.920;6.536;2023-05-29T11:18:42;20.00;59.20
61016;DHT22;46902;52.920;6.536;2023-05-29T11:21:44;20.00;58.40
61016;DHT22;46902;52.920;6.536;2023-05-29T11:24:27;20.10;58.30
61016;DHT22;46902;52.920;6.536;2023-05-29T11:26:55;20.20;58.40
61016;DHT22;46902;52.920;6.536;2023-05-29T11:29:27;20.20;58.70
61016;DHT22;46902;52.920;6.536;2023-05-29T11:34:27;20.50;57.50
61016;DHT22;46902;52.920;6.536;2023-05-29T11:36:53;20.60;56.10
61016;DHT22;46902;52.920;6.536;2023-05-29T11:39:18;20.60;56.60
61016;DHT22;46902;52.920;6.536;2023-05-29T11:41:44;20.60;55.80
61016;DHT22;46902;52.920;6.536;2023-05-29T11:44:13;20.40;55.20
61016;DHT22;46902;52.920;6.536;2023-05-29T11:46:39;20.40;56.30
61016;DHT22;46902;52.920;6.536;2023-05-29T11:49:05;20.60;57.10
61016;DHT22;46902;52.920;6.536;2023-05-29T11:51:31;20.70;57.70
61016;DHT22;46902;52.920;6.536;2023-05-29T11:53:57;20.70;56.80
61016;DHT22;46902;52.920;6.536;2023-05-29T11:56:27;20.70;56.80
61016;DHT22;46902;52.920;6.536;2023-05-29T11:58:53;20.70;57.20
61016;DHT22;46902;52.920;6.536;2023-05-29T12:01:26;20.60;57.10
61016;DHT22;46902;52.920;6.536;2023-05-29T12:03:53;20.70;57.10
61016;DHT22;46902;52.920;6.536;2023-05-29T12:06:35;20.70;56.90
61016;DHT22;46902;52.920;6.536;2023-05-29T12:09:03;21.00;57.70
61016;DHT22;46902;52.920;6.536;2023-05-29T12:11:29;21.20;57.10
61016;DHT22;46902;52.920;6.536;2023-05-29T12:14:00;21.40;56.30
61016;DHT22;46902;52.920;6.536;2023-05-29T12:16:27;21.50;55.30
61016;DHT22;46902;52.920;6.536;2023-05-29T12:18:54;21.50;55.80
61016;DHT22;46902;52.920;6.536;2023-05-29T12:21:22;21.50;55.30
61016;DHT22;46902;52.920;6.536;2023-05-29T12:23:48;21.50;55.60
61016;DHT22;46902;52.920;6.536;2023-05-29T12:26:14;21.60;56.10
61016;DHT22;46902;52.920;6.536;2023-05-29T12:28:44;21.70;55.70
61016;DHT22;46902;52.920;6.536;2023-05-29T12:31:10;21.70;54.20
61016;DHT22;46902;52.920;6.536;2023-05-29T12:33:40;21.60;54.10
61016;DHT22;46902;52.920;6.536;2023-05-29T12:36:08;21.50;54.00
61016;DHT22;46902;52.920;6.536;2023-05-29T12:38:51;21.60;55.00
61016;DHT22;46902;52.920;6.536;2023-05-29T12:41:27;21.80;54.10
61016;DHT22;46902;52.920;6.536;2023-05-29T12:43:57;22.00;55.30
61016;DHT22;46902;52.920;6.536;2023-05-29T12:46:24;22.00;54.40
61016;DHT22;46902;52.920;6.536;2023-05-29T12:48:51;22.00;53.70
61016;DHT22;46902;52.920;6.536;2023-05-29T12:51:25;22.10;54.90
61016;DHT22;46902;52.920;6.536;2023-05-29T12:53:51;22.20;54.10
61016;DHT22;46902;52.920;6.536;2023-05-29T12:56:23;22.30;53.70
61016;DHT22;46902;52.920;6.536;2023-05-29T12:58:50;22.30;53.40
61016;DHT22;46902;52.920;6.536;2023-05-29T13:01:16;22.50;53.50
61016;DHT22;46902;52.920;6.536;2023-05-29T13:03:42;22.60;52.50
61016;DHT22;46902;52.920;6.536;2023-05-29T13:06:07;22.50;51.80
61016;DHT22;46902;52.920;6.536;2023-05-29T13:08:33;22.40;52.10
61016;DHT22;46902;52.920;6.536;2023-05-29T13:10:59;22.40;52.40
61016;DHT22;46902;52.920;6.536;2023-05-29T13:13:24;22.40;52.10
61016;DHT22;46902;52.920;6.536;2023-05-29T13:15:50;22.40;52.30
61016;DHT22;46902;52.920;6.536;2023-05-29T13:18:15;22.40;51.80
61016;DHT22;46902;52.920;6.536;2023-05-29T13:20:41;22.40;52.10
61016;DHT22;46902;52.920;6.536;2023-05-29T13:23:07;22.40;51.90
61016;DHT22;46902;52.920;6.536;2023-05-29T13:25:34;22.50;52.10
61016;DHT22;46902;52.920;6.536;2023-05-29T13:28:00;22.50;51.60
61016;DHT22;46902;52.920;6.536;2023-05-29T13:30:26;22.50;51.20
61016;DHT22;46902;52.920;6.536;2023-05-29T13:32:52;22.40;51.40
61016;DHT22;46902;52.920;6.536;2023-05-29T13:35:18;22.30;50.70
61016;DHT22;46902;52.920;6.536;2023-05-29T13:37:44;22.30;50.70
61016;DHT22;46902;52.920;6.536;2023-05-29T13:40:10;22.40;50.70
61016;DHT22;46902;52.920;6.536;2023-05-29T13:42:35;22.50;49.10
61016;DHT22;46902;52.920;6.536;2023-05-29T13:45:01;22.40;48.40
61016;DHT22;46902;52.920;6.536;2023-05-29T13:47:27;22.40;49.90
61016;DHT22;46902;52.920;6.536;2023-05-29T13:49:56;22.40;49.40
61016;DHT22;46902;52.920;6.536;2023-05-29T13:52:22;22.40;50.00
61016;DHT22;46902;52.920;6.536;2023-05-29T13:54:48;22.30;49.80
61016;DHT22;46902;52.920;6.536;2023-05-29T13:57:13;22.40;50.40
61016;DHT22;46902;52.920;6.536;2023-05-29T13:59:39;22.30;49.40
61016;DHT22;46902;52.920;6.536;2023-05-29T14:02:05;22.40;49.60
61016;DHT22;46902;52.920;6.536;2023-05-29T14:04:31;22.40;49.50
61016;DHT22;46902;52.920;6.536;2023-05-29T14:06:57;22.40;48.90
61016;DHT22;46902;52.920;6.536;2023-05-29T14:09:22;22.30;47.70
61016;DHT22;46902;52.920;6.536;2023-05-29T14:11:59;22.20;47.60
61016;DHT22;46902;52.920;6.536;2023-05-29T14:14:25;22.20;48.60
61016;DHT22;46902;52.920;6.536;2023-05-29T14:16:52;22.10;48.50
61016;DHT22;46902;52.920;6.536;2023-05-29T14:19:18;22.10;49.30
61016;DHT22;46902;52.920;6.536;2023-05-29T14:21:44;22.10;49.20
61016;DHT22;46902;52.920;6.536;2023-05-29T14:24:10;22.20;49.70
61016;DHT22;46902;52.920;6.536;2023-05-29T14:26:36;22.10;49.60
61016;DHT22;46902;52.920;6.536;2023-05-29T14:29:02;22.20;50.20
61016;DHT22;46902;52.920;6.536;2023-05-29T14:31:28;22.30;49.10
61016;DHT22;46902;52.920;6.536;2023-05-29T14:33:54;22.20;49.40
61016;DHT22;46902;52.920;6.536;2023-05-29T14:36:19;22.20;49.30
61016;DHT22;46902;52.920;6.536;2023-05-29T14:38:45;22.00;48.90
61016;DHT22;46902;52.920;6.536;2023-05-29T14:41:11;21.90;49.00
61016;DHT22;46902;52.920;6.536;2023-05-29T14:43:41;21.90;49.40
61016;DHT22;46902;52.920;6.536;2023-05-29T14:46:07;21.90;48.00
61016;DHT22;46902;52.920;6.536;2023-05-29T14:48:33;21.90;47.70
61016;DHT22;46902;52.920;6.536;2023-05-29T14:50:59;21.90;47.90
61016;DHT22;46902;52.920;6.536;2023-05-29T14:53:24;21.90;48.60
61016;DHT22;46902;52.920;6.536;2023-05-29T14:55:50;21.90;48.80
61016;DHT22;46902;52.920;6.536;2023-05-29T14:58:15;21.90;48.70
61016;DHT22;46902;52.920;6.536;2023-05-29T15:00:41;21.90;48.90
61016;DHT22;46902;52.920;6.536;2023-05-29T15:03:07;21.80;48.90
61016;DHT22;46902;52.920;6.536;2023-05-29T15:05:32;21.80;49.00
61016;DHT22;46902;52.920;6.536;2023-05-29T15:07:58;21.80;48.80
61016;DHT22;46902;52.920;6.536;2023-05-29T15:10:25;21.80;48.10
61016;DHT22;46902;52.920;6.536;2023-05-29T15:12:52;21.80;47.90
61016;DHT22;46902;52.920;6.536;2023-05-29T15:15:23;21.70;47.70
61016;DHT22;46902;52.920;6.536;2023-05-29T15:17:49;21.60;47.40
61016;DHT22;46902;52.920;6.536;2023-05-29T15:20:19;21.50;47.40
61016;DHT22;46902;52.920;6.536;2023-05-29T15:22:45;21.60;47.40
61016;DHT22;46902;52.920;6.536;2023-05-29T15:25:11;21.60;46.90
61016;DHT22;46902;52.920;6.536;2023-05-29T15:27:37;21.50;46.60
61016;DHT22;46902;52.920;6.536;2023-05-29T15:30:29;21.50;46.50
61016;DHT22;46902;52.920;6.536;2023-05-29T15:32:54;21.50;46.30
61016;DHT22;46902;52.920;6.536;2023-05-29T15:35:20;21.40;46.50
61016;DHT22;46902;52.920;6.536;2023-05-29T15:37:46;21.40;46.60
61016;DHT22;46902;52.920;6.536;2023-05-29T15:40:11;21.40;46.70
61016;DHT22;46902;52.920;6.536;2023-05-29T15:42:37;21.40;45.90
61016;DHT22;46902;52.920;6.536;2023-05-29T15:45:04;21.30;45.80
61016;DHT22;46902;52.920;6.536;2023-05-29T15:47:30;21.20;45.80
61016;DHT22;46902;52.920;6.536;2023-05-29T15:49:57;21.10;45.50
61016;DHT22;46902;52.920;6.536;2023-05-29T15:52:24;20.90;46.10
61016;DHT22;46902;52.920;6.536;2023-05-29T15:54:50;20.90;46.70
61016;DHT22;46902;52.920;6.536;2023-05-29T15:57:16;20.80;46.90
61016;DHT22;46902;52.920;6.536;2023-05-29T15:59:41;20.70;46.40
61016;DHT22;46902;52.920;6.536;2023-05-29T16:02:07;20.70;45.90
61016;DHT22;46902;52.920;6.536;2023-05-29T16:04:34;20.60;46.30
61016;DHT22;46902;52.920;6.536;2023-05-29T16:07:00;20.60;47.40